sensor_id;sensor_type;location;lat;lon;timestamp;pressure;altitude;pressure_sealevel;temperature;humidity
51715;BME280;39115;59.332;18.034;2023-03-03T00:02:15;101070.47;;;4.87;46.83
51715;BME280;39115;59.332;18.034;2023-03-03T00:04:35;101082.72;;;4.88;47.19
51715;BME280;39115;59.332;18.034;2023-03-03T00:06:55;101066.06;;;4.87;47.12
51715;BME280;39115;59.332;18.034;2023-03-03T00:09:16;101061.72;;;4.86;47.37
51715;BME280;39115;59.332;18.034;2023-03-03T00:11:37;101086.28;;;4.87;47.09
51715;BME280;39115;59.332;18.034;2023-03-03T00:13:57;101064.44;;;4.85;46.96
51715;BME280;39115;59.332;18.034;2023-03-03T00:16:28;101060.94;;;4.84;46.89
51715;BME280;39115;59.332;18.034;2023-03-03T00:18:51;101058.50;;;4.81;47.30
51715;BME280;39115;59.332;18.034;2023-03-03T00:23:48;101058.78;;;4.77;46.94
51715;BME280;39115;59.332;18.034;2023-03-03T00:26:20;101062.44;;;4.74;47.23
51715;BME280;39115;59.332;18.034;2023-03-03T00:28:51;101055.53;;;4.71;47.32
51715;BME280;39115;59.332;18.034;2023-03-03T00:31:18;101055.63;;;4.70;47.19
51715;BME280;39115;59.332;18.034;2023-03-03T00:33:50;101066.28;;;4.68;47.43
51715;BME280;39115;59.332;18.034;2023-03-03T00:38:34;101047.22;;;4.63;47.67
51715;BME280;39115;59.332;18.034;2023-03-03T00:40:56;101043.84;;;4.61;47.76
51715;BME280;39115;59.332;18.034;2023-03-03T00:45:46;101044.88;;;4.58;47.74
51715;BME280;39115;59.332;18.034;2023-03-03T00:48:39;101048.50;;;4.56;47.61
51715;BME280;39115;59.332;18.034;2023-03-03T00:51:10;101052.28;;;4.52;47.65
51715;BME280;39115;59.332;18.034;2023-03-03T00:53:36;101040.03;;;4.51;47.64
51715;BME280;39115;59.332;18.034;2023-03-03T00:55:57;101047.94;;;4.51;47.55
51715;BME280;39115;59.332;18.034;2023-03-03T00:58:19;101042.66;;;4.51;47.94
51715;BME280;39115;59.332;18.034;2023-03-03T01:00:41;101045.28;;;4.51;47.98
51715;BME280;39115;59.332;18.034;2023-03-03T01:03:04;101040.03;;;4.51;47.75
51715;BME280;39115;59.332;18.034;2023-03-03T01:05:25;101046.22;;;4.50;48.04
51715;BME280;39115;59.332;18.034;2023-03-03T01:07:46;101035.69;;;4.50;47.85
51715;BME280;39115;59.332;18.034;2023-03-03T01:10:07;101037.56;;;4.48;48.04
51715;BME280;39115;59.332;18.034;2023-03-03T01:12:28;101031.44;;;4.47;48.21
51715;BME280;39115;59.332;18.034;2023-03-03T01:14:49;101036.81;;;4.46;47.92
51715;BME280;39115;59.332;18.034;2023-03-03T01:17:12;101035.13;;;4.45;48.23
51715;BME280;39115;59.332;18.034;2023-03-03T01:19:32;101033.41;;;4.43;47.99
51715;BME280;39115;59.332;18.034;2023-03-03T01:21:53;101037.84;;;4.43;47.84
51715;BME280;39115;59.332;18.034;2023-03-03T01:24:13;101030.88;;;4.42;48.11
51715;BME280;39115;59.332;18.034;2023-03-03T01:26:34;101030.94;;;4.40;48.00
51715;BME280;39115;59.332;18.034;2023-03-03T01:28:54;101036.31;;;4.39;47.87
51715;BME280;39115;59.332;18.034;2023-03-03T01:31:15;101035.53;;;4.37;48.44
51715;BME280;39115;59.332;18.034;2023-03-03T01:33:36;101025.94;;;4.36;48.17
51715;BME280;39115;59.332;18.034;2023-03-03T01:35:57;101026.13;;;4.33;47.74
51715;BME280;39115;59.332;18.034;2023-03-03T01:38:18;101047.31;;;4.31;48.30
51715;BME280;39115;59.332;18.034;2023-03-03T01:40:38;101035.13;;;4.28;48.31
51715;BME280;39115;59.332;18.034;2023-03-03T01:43:00;101024.66;;;4.27;48.08
51715;BME280;39115;59.332;18.034;2023-03-03T01:45:24;101025.69;;;4.24;48.26
51715;BME280;39115;59.332;18.034;2023-03-03T01:48:09;101016.19;;;4.22;48.20
51715;BME280;39115;59.332;18.034;2023-03-03T01:50:48;101020.78;;;4.18;48.22
51715;BME280;39115;59.332;18.034;2023-03-03T01:53:15;101021.03;;;4.14;48.14
51715;BME280;39115;59.332;18.034;2023-03-03T01:55:38;101007.19;;;4.10;48.47
51715;BME280;39115;59.332;18.034;2023-03-03T01:58:08;101016.88;;;4.09;48.33
51715;BME280;39115;59.332;18.034;2023-03-03T02:00:30;101008.22;;;4.07;48.65
51715;BME280;39115;59.332;18.034;2023-03-03T02:02:52;100998.59;;;4.06;48.65
51715;BME280;39115;59.332;18.034;2023-03-03T02:05:15;101001.31;;;4.05;48.40
51715;BME280;39115;59.332;18.034;2023-03-03T02:07:36;101001.41;;;4.03;48.53
51715;BME280;39115;59.332;18.034;2023-03-03T02:10:10;100999.63;;;4.04;48.41
51715;BME280;39115;59.332;18.034;2023-03-03T02:12:54;101007.59;;;4.02;48.63
51715;BME280;39115;59.332;18.034;2023-03-03T02:17:38;101016.63;;;3.98;48.46
51715;BME280;39115;59.332;18.034;2023-03-03T02:22:36;101008.06;;;3.94;48.67
51715;BME280;39115;59.332;18.034;2023-03-03T02:24:59;101007.19;;;3.94;48.50
51715;BME280;39115;59.332;18.034;2023-03-03T02:27:21;101007.28;;;3.92;48.93
51715;BME280;39115;59.332;18.034;2023-03-03T02:29:42;101010.75;;;3.93;48.87
51715;BME280;39115;59.332;18.034;2023-03-03T02:32:02;101002.00;;;3.92;48.76
51715;BME280;39115;59.332;18.034;2023-03-03T02:34:23;101013.47;;;3.91;48.58
51715;BME280;39115;59.332;18.034;2023-03-03T02:36:43;101011.78;;;3.90;48.91
51715;BME280;39115;59.332;18.034;2023-03-03T02:39:15;101031.06;;;3.91;48.69
51715;BME280;39115;59.332;18.034;2023-03-03T02:44:19;101019.78;;;3.89;48.76
51715;BME280;39115;59.332;18.034;2023-03-03T02:46:43;101011.88;;;3.89;48.89
51715;BME280;39115;59.332;18.034;2023-03-03T02:49:05;101016.28;;;3.88;48.87
51715;BME280;39115;59.332;18.034;2023-03-03T02:51:25;101019.00;;;3.87;49.07
51715;BME280;39115;59.332;18.034;2023-03-03T02:53:46;101019.00;;;3.87;48.99
51715;BME280;39115;59.332;18.034;2023-03-03T02:56:07;101019.88;;;3.87;48.88
51715;BME280;39115;59.332;18.034;2023-03-03T02:58:29;101014.66;;;3.86;49.08
51715;BME280;39115;59.332;18.034;2023-03-03T03:00:49;101016.44;;;3.85;48.88
51715;BME280;39115;59.332;18.034;2023-03-03T03:03:10;101016.56;;;3.84;49.08
51715;BME280;39115;59.332;18.034;2023-03-03T03:05:31;101012.22;;;3.83;49.13
51715;BME280;39115;59.332;18.034;2023-03-03T03:07:51;101010.59;;;3.80;48.90
51715;BME280;39115;59.332;18.034;2023-03-03T03:10:11;101012.47;;;3.78;48.82
51715;BME280;39115;59.332;18.034;2023-03-03T03:12:32;101011.69;;;3.76;48.85
51715;BME280;39115;59.332;18.034;2023-03-03T03:14:52;101006.59;;;3.73;49.11
51715;BME280;39115;59.332;18.034;2023-03-03T03:17:13;101011.00;;;3.72;49.34
51715;BME280;39115;59.332;18.034;2023-03-03T03:19:33;101016.38;;;3.71;48.96
51715;BME280;39115;59.332;18.034;2023-03-03T03:21:54;101010.22;;;3.70;49.22
51715;BME280;39115;59.332;18.034;2023-03-03T03:24:14;101004.22;;;3.68;49.18
51715;BME280;39115;59.332;18.034;2023-03-03T03:26:35;100998.09;;;3.68;49.32
51715;BME280;39115;59.332;18.034;2023-03-03T03:28:55;101002.53;;;3.67;49.36
51715;BME280;39115;59.332;18.034;2023-03-03T03:31:17;101000.03;;;3.64;49.47
51715;BME280;39115;59.332;18.034;2023-03-03T03:33:38;100998.34;;;3.63;49.32
51715;BME280;39115;59.332;18.034;2023-03-03T03:35:59;100996.72;;;3.60;49.23
51715;BME280;39115;59.332;18.034;2023-03-03T03:38:23;100991.66;;;3.57;49.53
51715;BME280;39115;59.332;18.034;2023-03-03T03:40:43;100997.84;;;3.56;49.57
51715;BME280;39115;59.332;18.034;2023-03-03T03:43:04;100994.44;;;3.54;49.29
51715;BME280;39115;59.332;18.034;2023-03-03T03:45:24;100993.66;;;3.52;49.47
51715;BME280;39115;59.332;18.034;2023-03-03T03:47:45;101004.19;;;3.52;49.46
51715;BME280;39115;59.332;18.034;2023-03-03T03:50:06;100998.25;;;3.48;49.53
51715;BME280;39115;59.332;18.034;2023-03-03T03:52:26;100997.47;;;3.46;49.63
51715;BME280;39115;59.332;18.034;2023-03-03T03:54:47;100984.50;;;3.43;49.62
51715;BME280;39115;59.332;18.034;2023-03-03T03:57:07;100988.97;;;3.41;49.79
51715;BME280;39115;59.332;18.034;2023-03-03T03:59:28;100990.94;;;3.38;49.98
51715;BME280;39115;59.332;18.034;2023-03-03T04:01:48;100985.75;;;3.36;49.81
51715;BME280;39115;59.332;18.034;2023-03-03T04:04:09;100982.34;;;3.34;49.89
51715;BME280;39115;59.332;18.034;2023-03-03T04:06:30;100978.94;;;3.32;49.85
51715;BME280;39115;59.332;18.034;2023-03-03T04:08:51;100983.47;;;3.30;49.99
51715;BME280;39115;59.332;18.034;2023-03-03T04:11:11;100981.81;;;3.27;49.87
51715;BME280;39115;59.332;18.034;2023-03-03T04:13:32;100986.34;;;3.25;50.01
51715;BME280;39115;59.332;18.034;2023-03-03T04:15:54;100975.97;;;3.22;49.84
51715;BME280;39115;59.332;18.034;2023-03-03T04:18:14;100984.78;;;3.21;50.21
51715;BME280;39115;59.332;18.034;2023-03-03T04:20:35;100978.75;;;3.19;50.20
51715;BME280;39115;59.332;18.034;2023-03-03T04:22:55;100964.91;;;3.15;50.14
51715;BME280;39115;59.332;18.034;2023-03-03T04:25:17;100972.78;;;3.15;50.27
51715;BME280;39115;59.332;18.034;2023-03-03T04:27:37;100974.69;;;3.13;50.21
51715;BME280;39115;59.332;18.034;2023-03-03T04:29:58;100979.16;;;3.11;50.40
51715;BME280;39115;59.332;18.034;2023-03-03T04:32:18;100978.47;;;3.08;50.36
51715;BME280;39115;59.332;18.034;2023-03-03T04:34:39;100973.31;;;3.06;50.50
51715;BME280;39115;59.332;18.034;2023-03-03T04:37:00;100976.06;;;3.03;50.47
51715;BME280;39115;59.332;18.034;2023-03-03T04:39:21;100971.75;;;3.02;50.32
51715;BME280;39115;59.332;18.034;2023-03-03T04:41:41;100976.22;;;3.00;50.35
51715;BME280;39115;59.332;18.034;2023-03-03T04:44:02;100970.22;;;2.98;50.50
51715;BME280;39115;59.332;18.034;2023-03-03T04:46:22;100972.06;;;2.96;50.51
51715;BME280;39115;59.332;18.034;2023-03-03T04:48:43;100973.94;;;2.94;50.68
51715;BME280;39115;59.332;18.034;2023-03-03T04:51:03;100966.97;;;2.93;50.92
51715;BME280;39115;59.332;18.034;2023-03-03T04:53:24;100967.19;;;2.88;50.95
51715;BME280;39115;59.332;18.034;2023-03-03T04:55:44;100961.19;;;2.86;50.84
51715;BME280;39115;59.332;18.034;2023-03-03T04:58:05;100959.47;;;2.85;50.82
51715;BME280;39115;59.332;18.034;2023-03-03T05:00:26;100952.63;;;2.82;50.90
51715;BME280;39115;59.332;18.034;2023-03-03T05:02:47;100953.53;;;2.81;50.98
51715;BME280;39115;59.332;18.034;2023-03-03T05:05:08;100951.84;;;2.80;50.83
51715;BME280;39115;59.332;18.034;2023-03-03T05:07:29;100952.75;;;2.79;51.05
51715;BME280;39115;59.332;18.034;2023-03-03T05:09:50;100943.16;;;2.78;51.10
51715;BME280;39115;59.332;18.034;2023-03-03T05:12:10;100933.66;;;2.76;51.23
51715;BME280;39115;59.332;18.034;2023-03-03T05:14:31;100937.22;;;2.75;51.30
51715;BME280;39115;59.332;18.034;2023-03-03T05:16:51;100941.63;;;2.74;50.98
51715;BME280;39115;59.332;18.034;2023-03-03T05:19:12;100936.44;;;2.73;51.03
51715;BME280;39115;59.332;18.034;2023-03-03T05:21:33;100945.28;;;2.72;51.23
51715;BME280;39115;59.332;18.034;2023-03-03T05:23:53;100949.66;;;2.71;51.41
51715;BME280;39115;59.332;18.034;2023-03-03T05:26:14;100938.31;;;2.71;51.30
51715;BME280;39115;59.332;18.034;2023-03-03T05:28:35;100938.38;;;2.69;51.46
51715;BME280;39115;59.332;18.034;2023-03-03T05:30:56;100929.56;;;2.70;51.49
51715;BME280;39115;59.332;18.034;2023-03-03T05:33:17;100927.03;;;2.68;51.47
51715;BME280;39115;59.332;18.034;2023-03-03T05:35:37;100925.22;;;2.69;51.48
51715;BME280;39115;59.332;18.034;2023-03-03T05:37:58;100924.41;;;2.68;51.42
51715;BME280;39115;59.332;18.034;2023-03-03T05:40:18;100925.31;;;2.67;51.49
51715;BME280;39115;59.332;18.034;2023-03-03T05:42:39;100922.69;;;2.67;51.50
51715;BME280;39115;59.332;18.034;2023-03-03T05:45:00;100934.91;;;2.68;51.75
51715;BME280;39115;59.332;18.034;2023-03-03T05:47:20;100922.59;;;2.69;51.76
51715;BME280;39115;59.332;18.034;2023-03-03T05:49:41;100927.88;;;2.69;51.68
51715;BME280;39115;59.332;18.034;2023-03-03T05:52:01;100931.44;;;2.68;51.72
51715;BME280;39115;59.332;18.034;2023-03-03T05:54:22;100931.44;;;2.68;51.61
51715;BME280;39115;59.332;18.034;2023-03-03T05:56:42;100935.84;;;2.67;51.71
51715;BME280;39115;59.332;18.034;2023-03-03T05:59:03;100931.44;;;2.68;51.96
51715;BME280;39115;59.332;18.034;2023-03-03T06:01:23;100927.13;;;2.67;51.86
51715;BME280;39115;59.332;18.034;2023-03-03T06:03:44;100916.44;;;2.70;51.76
51715;BME280;39115;59.332;18.034;2023-03-03T06:06:04;100933.13;;;2.69;51.97
51715;BME280;39115;59.332;18.034;2023-03-03T06:08:25;100935.75;;;2.69;51.88
51715;BME280;39115;59.332;18.034;2023-03-03T06:10:46;100926.00;;;2.71;51.61
51715;BME280;39115;59.332;18.034;2023-03-03T06:13:07;100929.41;;;2.73;52.08
51715;BME280;39115;59.332;18.034;2023-03-03T06:15:27;100935.50;;;2.74;51.74
51715;BME280;39115;59.332;18.034;2023-03-03T06:17:48;100923.25;;;2.74;51.83
51715;BME280;39115;59.332;18.034;2023-03-03T06:20:09;100918.91;;;2.73;51.95
51715;BME280;39115;59.332;18.034;2023-03-03T06:22:30;100923.25;;;2.74;51.93
51715;BME280;39115;59.332;18.034;2023-03-03T06:24:50;100923.25;;;2.74;52.08
51715;BME280;39115;59.332;18.034;2023-03-03T06:27:11;100914.44;;;2.75;51.94
51715;BME280;39115;59.332;18.034;2023-03-03T06:29:32;100909.16;;;2.75;52.19
51715;BME280;39115;59.332;18.034;2023-03-03T06:31:53;100909.91;;;2.77;51.98
51715;BME280;39115;59.332;18.034;2023-03-03T06:34:13;100898.47;;;2.78;51.98
51715;BME280;39115;59.332;18.034;2023-03-03T06:36:34;100900.09;;;2.81;52.27
51715;BME280;39115;59.332;18.034;2023-03-03T06:38:54;100905.28;;;2.82;51.93
51715;BME280;39115;59.332;18.034;2023-03-03T06:41:15;100913.00;;;2.85;52.22
51715;BME280;39115;59.332;18.034;2023-03-03T06:43:35;100899.78;;;2.87;51.92
51715;BME280;39115;59.332;18.034;2023-03-03T06:45:56;100918.00;;;2.90;52.40
51715;BME280;39115;59.332;18.034;2023-03-03T06:48:17;100912.75;;;2.90;51.91
51715;BME280;39115;59.332;18.034;2023-03-03T06:50:37;100903.84;;;2.93;52.01
51715;BME280;39115;59.332;18.034;2023-03-03T06:53:05;100910.66;;;2.97;51.90
51715;BME280;39115;59.332;18.034;2023-03-03T06:55:27;100903.53;;;2.99;51.92
51715;BME280;39115;59.332;18.034;2023-03-03T06:57:47;100901.59;;;3.03;52.06
51715;BME280;39115;59.332;18.034;2023-03-03T07:00:22;100904.81;;;3.08;51.75
51715;BME280;39115;59.332;18.034;2023-03-03T07:02:43;100903.03;;;3.08;52.08
51715;BME280;39115;59.332;18.034;2023-03-03T07:05:16;100915.19;;;3.11;51.88
51715;BME280;39115;59.332;18.034;2023-03-03T07:07:37;100904.66;;;3.11;51.92
51715;BME280;39115;59.332;18.034;2023-03-03T07:09:57;100921.19;;;3.13;51.86
51715;BME280;39115;59.332;18.034;2023-03-03T07:12:22;100908.03;;;3.13;52.04
51715;BME280;39115;59.332;18.034;2023-03-03T07:14:45;100908.72;;;3.16;52.20
51715;BME280;39115;59.332;18.034;2023-03-03T07:17:14;100904.09;;;3.22;52.00
51715;BME280;39115;59.332;18.034;2023-03-03T07:19:35;100904.75;;;3.25;51.70
51715;BME280;39115;59.332;18.034;2023-03-03T07:21:56;100888.72;;;3.30;51.63
51715;BME280;39115;59.332;18.034;2023-03-03T07:24:28;100895.34;;;3.37;51.74
51715;BME280;39115;59.332;18.034;2023-03-03T07:26:50;100887.22;;;3.42;51.34
51715;BME280;39115;59.332;18.034;2023-03-03T07:29:28;100889.56;;;3.46;51.69
51715;BME280;39115;59.332;18.034;2023-03-03T07:31:57;100874.53;;;3.48;51.33
51715;BME280;39115;59.332;18.034;2023-03-03T07:34:39;100886.59;;;3.53;51.91
51715;BME280;39115;59.332;18.034;2023-03-03T07:37:10;100889.16;;;3.54;51.54
51715;BME280;39115;59.332;18.034;2023-03-03T07:39:38;100874.84;;;3.58;51.40
51715;BME280;39115;59.332;18.034;2023-03-03T07:44:34;100858.53;;;3.68;51.31
51715;BME280;39115;59.332;18.034;2023-03-03T07:46:56;100862.47;;;3.76;51.22
51715;BME280;39115;59.332;18.034;2023-03-03T07:49:34;100857.75;;;3.82;51.42
51715;BME280;39115;59.332;18.034;2023-03-03T07:51:56;100854.59;;;3.91;51.34
51715;BME280;39115;59.332;18.034;2023-03-03T07:54:37;100853.13;;;4.01;51.05
51715;BME280;39115;59.332;18.034;2023-03-03T07:59:29;100833.59;;;4.20;50.62
51715;BME280;39115;59.332;18.034;2023-03-03T08:01:54;100840.03;;;4.30;50.68
51715;BME280;39115;59.332;18.034;2023-03-03T08:04:25;100819.13;;;4.41;50.75
51715;BME280;39115;59.332;18.034;2023-03-03T08:14:24;100803.19;;;4.86;50.49
51715;BME280;39115;59.332;18.034;2023-03-03T08:16:45;100803.69;;;4.93;50.17
51715;BME280;39115;59.332;18.034;2023-03-03T08:19:05;100804.03;;;5.01;49.96
51715;BME280;39115;59.332;18.034;2023-03-03T08:21:26;100800.91;;;5.09;50.12
51715;BME280;39115;59.332;18.034;2023-03-03T08:23:47;100796.09;;;5.16;50.06
51715;BME280;39115;59.332;18.034;2023-03-03T08:26:12;100788.59;;;5.22;49.73
51715;BME280;39115;59.332;18.034;2023-03-03T08:28:33;100800.44;;;5.30;49.63
51715;BME280;39115;59.332;18.034;2023-03-03T08:30:53;100787.91;;;5.33;49.14
51715;BME280;39115;59.332;18.034;2023-03-03T08:33:14;100795.81;;;5.33;49.71
51715;BME280;39115;59.332;18.034;2023-03-03T08:35:38;100786.97;;;5.34;49.66
51715;BME280;39115;59.332;18.034;2023-03-03T08:37:59;100787.81;;;5.35;48.99
51715;BME280;39115;59.332;18.034;2023-03-03T08:40:20;100775.28;;;5.38;49.54
51715;BME280;39115;59.332;18.034;2023-03-03T08:42:40;100786.38;;;5.44;48.88
51715;BME280;39115;59.332;18.034;2023-03-03T08:45:02;100777.59;;;5.43;48.69
51715;BME280;39115;59.332;18.034;2023-03-03T08:47:24;100785.53;;;5.43;49.46
51715;BME280;39115;59.332;18.034;2023-03-03T08:49:46;100782.03;;;5.43;48.86
51715;BME280;39115;59.332;18.034;2023-03-03T08:52:07;100772.22;;;5.45;48.95
51715;BME280;39115;59.332;18.034;2023-03-03T08:54:27;100765.47;;;5.53;49.01
51715;BME280;39115;59.332;18.034;2023-03-03T08:56:48;100762.34;;;5.61;48.55
51715;BME280;39115;59.332;18.034;2023-03-03T08:59:08;100770.03;;;5.64;48.83
51715;BME280;39115;59.332;18.034;2023-03-03T09:01:31;100762.69;;;5.69;48.35
51715;BME280;39115;59.332;18.034;2023-03-03T09:03:51;100749.88;;;5.76;48.70
51715;BME280;39115;59.332;18.034;2023-03-03T09:06:12;100746.94;;;5.81;48.69
51715;BME280;39115;59.332;18.034;2023-03-03T09:08:32;100772.28;;;5.83;48.48
51715;BME280;39115;59.332;18.034;2023-03-03T09:10:53;100738.69;;;5.85;47.99
51715;BME280;39115;59.332;18.034;2023-03-03T09:13:16;100725.38;;;5.87;48.50
51715;BME280;39115;59.332;18.034;2023-03-03T09:15:38;100727.06;;;5.88;48.19
51715;BME280;39115;59.332;18.034;2023-03-03T09:18:22;100729.41;;;5.93;48.51
51715;BME280;39115;59.332;18.034;2023-03-03T09:23:40;100712.00;;;6.16;48.39
51715;BME280;39115;59.332;18.034;2023-03-03T09:28:31;100702.19;;;6.18;48.09
51715;BME280;39115;59.332;18.034;2023-03-03T09:30:53;100702.25;;;6.16;48.13
51715;BME280;39115;59.332;18.034;2023-03-03T09:33:41;100694.25;;;6.18;48.07
51715;BME280;39115;59.332;18.034;2023-03-03T09:38:43;100685.75;;;6.26;47.79
51715;BME280;39115;59.332;18.034;2023-03-03T09:46:21;100661.84;;;6.27;47.28
51715;BME280;39115;59.332;18.034;2023-03-03T10:15:26;100623.34;;;6.36;47.62
51715;BME280;39115;59.332;18.034;2023-03-03T10:17:57;100606.25;;;6.29;47.25
51715;BME280;39115;59.332;18.034;2023-03-03T10:20:46;100611.13;;;6.22;47.54
51715;BME280;39115;59.332;18.034;2023-03-03T10:24:13;100622.16;;;6.16;47.57
51715;BME280;39115;59.332;18.034;2023-03-03T10:29:23;100592.34;;;6.01;47.62
51715;BME280;39115;59.332;18.034;2023-03-03T10:49:01;100603.88;;;5.35;49.66
51715;BME280;39115;59.332;18.034;2023-03-03T10:51:43;100597.31;;;5.28;49.96
51715;BME280;39115;59.332;18.034;2023-03-03T10:54:33;100581.47;;;5.15;50.11
51715;BME280;39115;59.332;18.034;2023-03-03T10:57:20;100590.41;;;5.00;50.75
51715;BME280;39115;59.332;18.034;2023-03-03T10:59:50;100579.50;;;4.79;51.90
51715;BME280;39115;59.332;18.034;2023-03-03T11:02:21;100579.66;;;4.63;53.40
51715;BME280;39115;59.332;18.034;2023-03-03T11:07:47;100572.81;;;4.33;54.45
51715;BME280;39115;59.332;18.034;2023-03-03T11:15:40;100512.72;;;4.10;55.37
51715;BME280;39115;59.332;18.034;2023-03-03T11:21:18;100499.50;;;3.98;56.43
51715;BME280;39115;59.332;18.034;2023-03-03T11:34:04;100453.69;;;3.73;57.72
51715;BME280;39115;59.332;18.034;2023-03-03T11:36:36;100455.66;;;3.69;58.77
51715;BME280;39115;59.332;18.034;2023-03-03T11:39:01;100453.31;;;3.64;59.00
51715;BME280;39115;59.332;18.034;2023-03-03T11:41:35;100439.59;;;3.59;58.86
51715;BME280;39115;59.332;18.034;2023-03-03T11:44:24;100439.16;;;3.53;58.57
51715;BME280;39115;59.332;18.034;2023-03-03T11:47:09;100434.16;;;3.48;59.01
51715;BME280;39115;59.332;18.034;2023-03-03T11:49:47;100439.50;;;3.46;59.37
51715;BME280;39115;59.332;18.034;2023-03-03T11:55:03;100419.97;;;3.51;59.53
51715;BME280;39115;59.332;18.034;2023-03-03T12:00:19;100396.00;;;3.55;60.27
51715;BME280;39115;59.332;18.034;2023-03-03T12:10:47;100349.16;;;3.60;61.12
51715;BME280;39115;59.332;18.034;2023-03-03T12:34:28;100236.34;;;3.94;61.46
51715;BME280;39115;59.332;18.034;2023-03-03T12:39:44;100238.66;;;3.99;61.90
51715;BME280;39115;59.332;18.034;2023-03-03T12:42:55;100228.53;;;4.06;61.92
51715;BME280;39115;59.332;18.034;2023-03-03T12:47:49;100213.03;;;4.27;60.78
51715;BME280;39115;59.332;18.034;2023-03-03T12:50:21;100222.94;;;4.36;60.89
51715;BME280;39115;59.332;18.034;2023-03-03T12:58:18;100198.31;;;4.62;60.63
51715;BME280;39115;59.332;18.034;2023-03-03T13:13:47;100174.34;;;5.02;58.89
51715;BME280;39115;59.332;18.034;2023-03-03T13:16:14;100155.53;;;5.06;57.86
51715;BME280;39115;59.332;18.034;2023-03-03T13:18:47;100149.06;;;5.11;57.54
51715;BME280;39115;59.332;18.034;2023-03-03T13:21:20;100130.25;;;5.15;56.96
51715;BME280;39115;59.332;18.034;2023-03-03T13:23:53;100125.72;;;5.17;56.75
51715;BME280;39115;59.332;18.034;2023-03-03T13:26:25;100119.63;;;5.28;56.79
51715;BME280;39115;59.332;18.034;2023-03-03T13:28:58;100120.72;;;5.37;56.27
51715;BME280;39115;59.332;18.034;2023-03-03T13:31:34;100099.25;;;5.42;55.49
51715;BME280;39115;59.332;18.034;2023-03-03T13:34:01;100092.06;;;5.44;55.35
51715;BME280;39115;59.332;18.034;2023-03-03T13:36:29;100076.22;;;5.44;55.33
51715;BME280;39115;59.332;18.034;2023-03-03T13:38:56;100081.38;;;5.45;54.69
51715;BME280;39115;59.332;18.034;2023-03-03T13:41:27;100074.19;;;5.47;54.38
51715;BME280;39115;59.332;18.034;2023-03-03T13:44:42;100058.00;;;5.52;54.70
51715;BME280;39115;59.332;18.034;2023-03-03T13:49:32;100046.34;;;5.54;54.00
51715;BME280;39115;59.332;18.034;2023-03-03T13:52:06;100031.38;;;5.55;53.46
51715;BME280;39115;59.332;18.034;2023-03-03T14:05:01;99988.59;;;6.07;51.66
51715;BME280;39115;59.332;18.034;2023-03-03T14:10:31;99970.97;;;6.28;51.65
51715;BME280;39115;59.332;18.034;2023-03-03T14:13:06;99968.41;;;6.38;50.96
51715;BME280;39115;59.332;18.034;2023-03-03T14:15:34;99955.28;;;6.48;50.46
51715;BME280;39115;59.332;18.034;2023-03-03T14:20:30;99948.59;;;6.65;49.59
51715;BME280;39115;59.332;18.034;2023-03-03T14:25:58;99945.47;;;6.81;50.09
51715;BME280;39115;59.332;18.034;2023-03-03T14:28:21;99948.19;;;6.91;49.13
51715;BME280;39115;59.332;18.034;2023-03-03T14:30:43;99943.53;;;7.04;48.52
51715;BME280;39115;59.332;18.034;2023-03-03T14:35:38;99936.53;;;7.24;48.18
51715;BME280;39115;59.332;18.034;2023-03-03T14:38:22;99923.56;;;7.31;48.14
51715;BME280;39115;59.332;18.034;2023-03-03T14:40:44;99934.31;;;7.39;47.24
51715;BME280;39115;59.332;18.034;2023-03-03T14:43:24;99919.72;;;7.45;47.30
51715;BME280;39115;59.332;18.034;2023-03-03T14:45:45;99909.44;;;7.52;46.87
51715;BME280;39115;59.332;18.034;2023-03-03T14:55:42;99910.03;;;7.75;46.12
51715;BME280;39115;59.332;18.034;2023-03-03T14:58:07;99926.63;;;7.77;46.12
51715;BME280;39115;59.332;18.034;2023-03-03T15:00:32;99910.44;;;7.70;45.83
51715;BME280;39115;59.332;18.034;2023-03-03T15:03:26;99918.13;;;7.73;46.01
51715;BME280;39115;59.332;18.034;2023-03-03T15:05:48;99925.94;;;7.75;45.71
51715;BME280;39115;59.332;18.034;2023-03-03T15:08:10;99916.03;;;7.67;45.29
51715;BME280;39115;59.332;18.034;2023-03-03T15:10:39;99906.41;;;7.66;45.22
51715;BME280;39115;59.332;18.034;2023-03-03T15:18:10;99902.25;;;8.32;44.84
51715;BME280;39115;59.332;18.034;2023-03-03T15:23:49;99894.69;;;7.79;45.09
51715;BME280;39115;59.332;18.034;2023-03-03T15:29:07;99887.34;;;7.32;45.43
51715;BME280;39115;59.332;18.034;2023-03-03T15:32:03;99901.38;;;7.12;45.63
51715;BME280;39115;59.332;18.034;2023-03-03T15:34:42;99876.09;;;6.99;45.44
51715;BME280;39115;59.332;18.034;2023-03-03T15:44:37;99874.84;;;6.72;45.11
51715;BME280;39115;59.332;18.034;2023-03-03T15:52:21;99876.22;;;6.45;45.65
51715;BME280;39115;59.332;18.034;2023-03-03T16:05:13;99870.94;;;6.03;45.48
51715;BME280;39115;59.332;18.034;2023-03-03T16:20:44;99889.56;;;5.78;46.35
51715;BME280;39115;59.332;18.034;2023-03-03T16:26:11;99877.69;;;5.73;46.33
51715;BME280;39115;59.332;18.034;2023-03-03T16:31:42;99885.16;;;5.67;47.37
51715;BME280;39115;59.332;18.034;2023-03-03T16:42:28;99876.88;;;5.61;47.40
51715;BME280;39115;59.332;18.034;2023-03-03T16:50:18;99848.19;;;5.67;47.74
51715;BME280;39115;59.332;18.034;2023-03-03T16:52:58;99842.78;;;5.69;48.03
51715;BME280;39115;59.332;18.034;2023-03-03T16:55:31;99839.19;;;5.70;48.26
51715;BME280;39115;59.332;18.034;2023-03-03T16:58:28;99842.53;;;5.72;47.69
51715;BME280;39115;59.332;18.034;2023-03-03T17:00:59;99832.56;;;5.76;48.05
51715;BME280;39115;59.332;18.034;2023-03-03T17:06:05;99826.06;;;5.80;47.97
51715;BME280;39115;59.332;18.034;2023-03-03T17:11:48;99827.03;;;5.79;47.63
51715;BME280;39115;59.332;18.034;2023-03-03T17:14:56;99837.59;;;5.79;47.89